Time;durP1;ratioP1;P1;durP2;ratioP2;P2;SDS_P1;SDS_P2;PMS_P1;PMS_P2;Temp;Humidity;BMP_temperature;BMP_pressure;BME280_temperature;BME280_humidity;BME280_pressure;Samples;Min_cycle;Max_cycle;Signal;HPM_P1;HPM_P2
2023/01/12 00:00:36;;;;;;;5.07;1.83;;;9.10;99.90;;;;;;5017754;28;20431;-78
2023/01/12 00:03:02;;;;;;;8.70;2.57;;;9.00;99.90;;;;;;5002999;28;20531;-78
2023/01/12 00:05:27;;;;;;;7.03;2.50;;;9.00;99.90;;;;;;5016945;28;20186;-78
2023/01/12 00:07:53;;;;;;;7.87;2.90;;;9.00;99.90;;;;;;5000241;28;20641;-78
2023/01/12 00:10:18;;;;;;;7.93;1.90;;;9.00;99.90;;;;;;5003005;28;20226;-78
2023/01/12 00:12:44;;;;;;;8.00;2.30;;;9.00;99.90;;;;;;5015961;28;20297;-78
2023/01/12 00:15:10;;;;;;;10.83;2.20;;;9.00;99.90;;;;;;5013691;28;20175;-79
2023/01/12 00:17:36;;;;;;;6.10;2.10;;;9.00;99.90;;;;;;5013565;28;20193;-78
2023/01/12 00:20:03;;;;;;;6.63;1.90;;;9.00;99.90;;;;;;4996578;28;20239;-78
2023/01/12 00:22:29;;;;;;;8.10;1.90;;;9.20;99.90;;;;;;4996033;28;20857;-78
2023/01/12 00:24:54;;;;;;;3.20;1.77;;;8.90;99.90;;;;;;5013490;28;20430;-78
2023/01/12 00:27:20;;;;;;;6.30;2.30;;;9.00;99.90;;;;;;4995699;28;20187;-78
2023/01/12 00:29:47;;;;;;;5.97;2.10;;;9.00;99.90;;;;;;4995881;28;20183;-77
2023/01/12 00:32:15;;;;;;;7.63;2.13;;;9.20;99.90;;;;;;4995936;28;20496;-78
2023/01/12 00:34:42;;;;;;;6.53;2.20;;;9.00;99.90;;;;;;4997062;28;20480;-77
2023/01/12 00:37:07;;;;;;;7.90;1.87;;;9.00;99.90;;;;;;5012273;28;20441;-78
2023/01/12 00:39:37;;;;;;;7.50;2.90;;;9.20;99.90;;;;;;5004476;28;20471;-78
2023/01/12 00:47:32;;;;;;;7.83;2.07;;;9.10;99.90;;;;;;5018519;28;20481;-78
2023/01/12 00:49:58;;;;;;;5.10;2.00;;;9.00;99.90;;;;;;5013841;28;20461;-78
2023/01/12 00:52:24;;;;;;;5.77;2.30;;;9.20;99.90;;;;;;4995815;28;20632;-78
2023/01/12 00:54:50;;;;;;;4.30;1.97;;;8.90;99.90;;;;;;5013665;28;20187;-78
2023/01/12 00:57:16;;;;;;;5.23;1.87;;;9.10;99.90;;;;;;5013227;28;20179;-78
2023/01/12 00:59:43;;;;;;;3.60;1.90;;;9.00;99.90;;;;;;4980858;28;20483;-78
2023/01/12 01:02:09;;;;;;;9.83;2.60;;;9.00;99.90;;;;;;5017743;28;20438;-78
2023/01/12 01:04:35;;;;;;;9.40;2.10;;;9.20;99.90;;;;;;5000068;28;20426;-77
2023/01/12 01:07:02;;;;;;;5.83;1.90;;;9.10;99.90;;;;;;5016645;28;20425;-78
2023/01/12 01:09:28;;;;;;;6.20;3.40;;;9.20;99.90;;;;;;5017056;28;20179;-77
2023/01/12 01:11:54;;;;;;;7.80;2.20;;;9.00;99.90;;;;;;5016930;28;20469;-79
2023/01/12 01:14:20;;;;;;;5.87;2.00;;;9.10;99.90;;;;;;4999445;28;20495;-79
2023/01/12 01:16:46;;;;;;;7.73;2.43;;;9.00;99.90;;;;;;5017273;28;20474;-76
2023/01/12 01:19:11;;;;;;;7.40;2.47;;;9.00;99.90;;;;;;5000294;28;20194;-78
2023/01/12 01:21:37;;;;;;;7.20;3.17;;;9.00;99.90;;;;;;4999834;28;20265;-78
2023/01/12 01:24:03;;;;;;;6.67;2.93;;;9.10;99.90;;;;;;5018155;28;20540;-77
2023/01/12 01:26:30;;;;;;;8.10;2.60;;;9.10;99.90;;;;;;5017525;28;20179;-79
2023/01/12 01:28:56;;;;;;;6.73;2.77;;;9.10;99.90;;;;;;4999768;28;20193;-79
2023/01/12 01:31:24;;;;;;;11.43;3.27;;;9.10;99.90;;;;;;5016771;28;20475;-77
2023/01/12 01:33:50;;;;;;;8.10;2.80;;;9.30;99.90;;;;;;5016464;28;20418;-77
2023/01/12 01:36:16;;;;;;;6.17;2.80;;;9.20;99.90;;;;;;4986988;28;20908;-78
2023/01/12 01:38:43;;;;;;;6.73;2.33;;;9.10;99.90;;;;;;4997184;28;20426;-78
2023/01/12 01:41:26;;;;;;;7.00;2.80;;;9.00;99.90;;;;;;4997483;28;20429;-78
2023/01/12 01:43:59;;;;;;;4.60;2.40;;;8.90;99.90;;;;;;4997220;28;20407;-78
2023/01/12 01:46:34;;;;;;;6.90;2.63;;;8.90;99.90;;;;;;4997374;28;20481;-78
2023/01/12 01:49:13;;;;;;;5.53;2.33;;;9.10;99.90;;;;;;4997700;28;20937;-78
2023/01/12 01:51:40;;;;;;;11.10;2.53;;;9.10;99.90;;;;;;4996642;28;20462;-78
2023/01/12 01:54:05;;;;;;;7.47;2.63;;;9.30;99.90;;;;;;4997512;28;20971;-78
2023/01/12 01:56:32;;;;;;;9.47;2.30;;;9.00;99.90;;;;;;4997380;28;20442;-78
2023/01/12 01:59:03;;;;;;;7.60;2.70;;;9.20;99.90;;;;;;4997356;28;20198;-78
2023/01/12 02:01:28;;;;;;;9.40;2.27;;;9.20;99.90;;;;;;4997283;28;20441;-78
2023/01/12 02:03:56;;;;;;;7.40;2.70;;;9.10;99.90;;;;;;4979268;28;20773;-78
2023/01/12 02:06:25;;;;;;;4.60;2.60;;;9.10;99.90;;;;;;5004187;28;20186;-78
2023/01/12 02:08:54;;;;;;;8.03;2.30;;;9.00;99.90;;;;;;5016189;28;20420;-78
2023/01/12 02:17:28;;;;;;;8.30;2.60;;;9.40;99.90;;;;;;4999075;28;20422;-78
2023/01/12 02:20:32;;;;;;;9.33;4.50;;;9.30;99.90;;;;;;4972438;28;20455;-78
2023/01/12 02:23:16;;;;;;;6.57;2.80;;;9.20;99.90;;;;;;4999127;28;20464;-77
2023/01/12 02:25:54;;;;;;;5.83;2.50;;;9.20;99.90;;;;;;5017420;28;20508;-77
2023/01/12 02:28:42;;;;;;;6.13;2.17;;;9.20;99.90;;;;;;4998851;28;20520;-78
2023/01/12 02:31:13;;;;;;;5.90;2.60;;;9.20;99.90;;;;;;5016374;28;20560;-78
2023/01/12 02:33:56;;;;;;;4.87;2.67;;;9.40;99.90;;;;;;5016527;28;20410;-78
2023/01/12 02:36:57;;;;;;;12.20;2.93;;;9.10;99.90;;;;;;5003222;28;20818;-78
2023/01/12 02:39:36;;;;;;;9.43;2.97;;;9.20;99.90;;;;;;4979696;28;20920;-78
2023/01/12 02:42:41;;;;;;;6.23;2.83;;;9.20;99.90;;;;;;4978668;28;20438;-78
2023/01/12 02:45:22;;;;;;;7.73;2.73;;;9.20;99.90;;;;;;4997268;28;20518;-78
2023/01/12 02:48:03;;;;;;;8.17;2.70;;;9.30;99.90;;;;;;4996379;28;20422;-78
2023/01/12 02:50:48;;;;;;;11.60;3.40;;;9.30;99.90;;;;;;4997023;28;20879;-78
2023/01/12 02:53:31;;;;;;;10.87;3.50;;;9.40;99.90;;;;;;4981661;28;20490;-78
2023/01/12 02:56:01;;;;;;;5.13;2.87;;;9.40;99.90;;;;;;4996999;28;20511;-78
2023/01/12 02:58:29;;;;;;;5.60;2.90;;;9.30;99.90;;;;;;4994924;28;20422;-77
2023/01/12 03:00:58;;;;;;;5.20;2.50;;;9.30;99.90;;;;;;4977216;28;20430;-78
2023/01/12 03:03:25;;;;;;;6.90;2.60;;;9.20;99.90;;;;;;4978261;28;20458;-77
2023/01/12 03:05:53;;;;;;;12.23;3.63;;;9.30;99.90;;;;;;4998437;28;20461;-78
2023/01/12 03:08:23;;;;;;;11.50;3.20;;;9.20;99.90;;;;;;5014829;28;20453;-77
2023/01/12 03:11:00;;;;;;;8.97;3.13;;;9.20;99.90;;;;;;5010043;28;20488;-77
2023/01/12 03:13:30;;;;;;;10.50;3.60;;;9.30;99.90;;;;;;5023639;28;20446;-78
2023/01/12 03:15:57;;;;;;;6.70;2.03;;;9.20;99.90;;;;;;5006719;28;20422;-78
2023/01/12 03:18:32;;;;;;;8.17;3.13;;;9.20;99.90;;;;;;5005714;28;20452;-78
2023/01/12 03:21:29;;;;;;;7.70;2.87;;;9.20;99.90;;;;;;5012760;28;20425;-78
2023/01/12 03:24:05;;;;;;;8.70;2.63;;;9.20;99.90;;;;;;4982144;28;21000;-78
2023/01/12 03:26:34;;;;;;;7.53;2.43;;;9.40;99.90;;;;;;5014612;28;20444;-78
2023/01/12 03:29:41;;;;;;;10.80;2.40;;;9.20;99.90;;;;;;4997188;28;20822;-78
2023/01/12 03:32:07;;;;;;;8.80;2.23;;;9.30;99.90;;;;;;4987571;28;20866;-78
2023/01/12 03:34:35;;;;;;;8.00;2.70;;;9.20;99.90;;;;;;5016522;28;20426;-77
2023/01/12 03:37:11;;;;;;;7.20;2.90;;;9.20;99.90;;;;;;5013371;28;20422;-78
2023/01/12 03:39:49;;;;;;;5.70;2.20;;;9.30;99.90;;;;;;4996952;28;20786;-78
2023/01/12 03:42:49;;;;;;;8.20;2.37;;;9.30;99.90;;;;;;4996873;28;20531;-78
2023/01/12 03:45:28;;;;;;;4.90;2.43;;;9.30;99.90;;;;;;5006492;28;20425;-77
2023/01/12 03:48:08;;;;;;;6.13;2.43;;;9.30;99.90;;;;;;4996898;28;20477;-77
2023/01/12 03:50:40;;;;;;;11.20;3.27;;;9.20;99.90;;;;;;5017016;28;20462;-77
2023/01/12 03:53:07;;;;;;;4.73;2.27;;;9.30;99.90;;;;;;4989924;28;20437;-78
2023/01/12 03:55:35;;;;;;;7.63;1.93;;;9.40;99.90;;;;;;5013732;28;20472;-77
2023/01/12 03:58:01;;;;;;;4.87;2.43;;;9.30;99.90;;;;;;5014377;28;20422;-78
2023/01/12 04:00:27;;;;;;;6.23;2.20;;;9.20;99.90;;;;;;4996465;28;21061;-78
2023/01/12 04:03:23;;;;;;;7.53;2.87;;;9.20;99.90;;;;;;5014142;28;20438;-78
2023/01/12 04:05:49;;;;;;;7.77;2.00;;;9.20;99.90;;;;;;4987352;28;20549;-78
2023/01/12 04:08:15;;;;;;;6.03;2.90;;;9.10;99.90;;;;;;5013210;28;20738;-78
2023/01/12 04:10:41;;;;;;;7.50;2.47;;;9.20;99.90;;;;;;5013107;28;20195;-78
2023/01/12 04:13:07;;;;;;;10.57;2.60;;;9.20;99.90;;;;;;5013355;28;20465;-78
2023/01/12 04:15:36;;;;;;;5.70;2.23;;;9.20;99.90;;;;;;4995072;28;20426;-78
2023/01/12 04:18:05;;;;;;;4.33;2.17;;;9.20;99.90;;;;;;5014237;28;20655;-78
2023/01/12 04:20:31;;;;;;;5.23;2.00;;;9.40;99.90;;;;;;4995684;28;20771;-79
2023/01/12 04:22:57;;;;;;;4.57;2.17;;;9.00;99.90;;;;;;5013503;28;20436;-76
2023/01/12 04:25:23;;;;;;;8.10;2.17;;;9.20;99.90;;;;;;4996289;28;20419;-78
2023/01/12 04:28:00;;;;;;;4.97;1.90;;;9.20;99.90;;;;;;4996470;28;20175;-78
2023/01/12 04:30:27;;;;;;;4.60;1.80;;;9.20;99.90;;;;;;5013154;28;20520;-77
2023/01/12 04:32:55;;;;;;;9.13;2.50;;;9.20;99.90;;;;;;4994470;28;20473;-79
2023/01/12 04:35:23;;;;;;;5.93;1.80;;;9.20;99.90;;;;;;4992775;28;20488;-79
2023/01/12 04:37:49;;;;;;;8.00;1.87;;;9.40;99.90;;;;;;4980946;28;20434;-79
2023/01/12 04:40:16;;;;;;;5.70;1.47;;;9.20;99.90;;;;;;4998531;28;20411;-79
2023/01/12 04:43:00;;;;;;;6.90;1.90;;;9.40;99.90;;;;;;4998797;28;20461;-79
2023/01/12 04:45:38;;;;;;;5.33;1.37;;;9.20;99.90;;;;;;4999379;28;20835;-79
2023/01/12 04:48:09;;;;;;;5.40;1.70;;;9.30;99.90;;;;;;4981975;28;20453;-79
2023/01/12 04:50:36;;;;;;;4.50;1.87;;;9.30;99.90;;;;;;4999934;28;20826;-79
2023/01/12 04:53:04;;;;;;;2.60;1.67;;;9.40;99.90;;;;;;4999606;28;20998;-79
2023/01/12 04:55:31;;;;;;;3.87;1.23;;;9.30;99.90;;;;;;4999337;28;20550;-79
2023/01/12 04:57:57;;;;;;;4.77;1.40;;;9.40;99.90;;;;;;4981801;28;20419;-79
2023/01/12 05:00:23;;;;;;;5.83;1.90;;;9.20;99.90;;;;;;5015264;28;20800;-79
2023/01/12 05:02:49;;;;;;;4.80;1.87;;;9.20;99.90;;;;;;5019449;28;20205;-79
2023/01/12 05:05:15;;;;;;;4.57;1.40;;;9.30;99.90;;;;;;5001511;28;20500;-79
2023/01/12 05:10:21;;;;;;;2.30;1.27;;;9.20;99.90;;;;;;5000746;28;20659;-79
2023/01/12 05:10:26;;;;;;;4.10;2.10;;;9.20;99.90;;;;;;4989485;28;20911;-79
2023/01/12 05:12:52;;;;;;;5.93;1.80;;;9.20;99.90;;;;;;4998807;28;20430;-79
2023/01/12 05:15:18;;;;;;;5.27;1.40;;;9.20;99.90;;;;;;4998433;28;20765;-80
2023/01/12 05:17:43;;;;;;;4.30;1.50;;;9.20;99.90;;;;;;4974939;28;20180;-79
2023/01/12 05:20:10;;;;;;;2.83;1.20;;;9.30;99.90;;;;;;4997811;28;20192;-79
2023/01/12 05:22:35;;;;;;;9.00;1.97;;;9.30;99.90;;;;;;4999306;28;20298;-79
2023/01/12 05:25:01;;;;;;;5.70;1.20;;;9.20;99.90;;;;;;4998622;28;20446;-79
2023/01/12 05:27:27;;;;;;;4.23;1.20;;;9.20;99.90;;;;;;4998868;28;20219;-79
2023/01/12 05:29:55;;;;;;;1.87;1.40;;;9.20;99.90;;;;;;4993804;28;20251;-80
2023/01/12 05:32:21;;;;;;;3.90;1.47;;;9.20;99.90;;;;;;4997429;28;20227;-79
2023/01/12 05:34:47;;;;;;;4.20;0.97;;;9.10;99.90;;;;;;4999322;28;20765;-79
2023/01/12 05:37:12;;;;;;;3.63;1.60;;;9.10;99.90;;;;;;5017852;28;20215;-79
2023/01/12 05:39:38;;;;;;;1.70;1.10;;;9.20;99.90;;;;;;5018480;28;20187;-79
2023/01/12 05:44:47;;;;;;;5.20;2.07;;;9.10;99.90;;;;;;5017785;28;20567;-79
2023/01/12 05:47:13;;;;;;;4.70;1.40;;;9.10;99.90;;;;;;4995951;28;20441;-79
2023/01/12 05:49:39;;;;;;;1.97;0.97;;;9.20;99.90;;;;;;5021888;28;20186;-79
2023/01/12 05:52:04;;;;;;;4.20;1.30;;;9.20;99.90;;;;;;5003724;28;20758;-79
2023/01/12 05:54:30;;;;;;;1.37;0.90;;;9.20;99.90;;;;;;5013001;28;20195;-80
2023/01/12 05:56:56;;;;;;;3.43;1.10;;;9.30;99.90;;;;;;5016669;28;20197;-79
2023/01/12 05:59:21;;;;;;;1.53;1.10;;;9.10;99.90;;;;;;4981237;28;20805;-79
2023/01/12 06:01:47;;;;;;;3.13;1.20;;;9.10;99.90;;;;;;5012172;28;20226;-80
2023/01/12 06:04:13;;;;;;;2.30;0.80;;;9.10;99.90;;;;;;5012043;28;20278;-79
2023/01/12 06:06:38;;;;;;;2.90;1.00;;;8.70;99.90;;;;;;5006049;28;20184;-79
2023/01/12 06:09:04;;;;;;;1.90;0.87;;;9.00;99.90;;;;;;4997908;28;20613;-79
2023/01/12 06:14:15;;;;;;;3.30;1.07;;;9.30;99.90;;;;;;4997802;28;20418;-78
2023/01/12 06:16:41;;;;;;;2.73;1.40;;;9.00;99.90;;;;;;4963213;28;20423;-79
2023/01/12 06:19:08;;;;;;;0.70;0.53;;;9.00;99.90;;;;;;5003091;28;20472;-78
2023/01/12 06:21:34;;;;;;;0.83;0.80;;;8.90;99.90;;;;;;5016379;28;20452;-79
2023/01/12 06:24:00;;;;;;;1.00;0.80;;;8.90;99.90;;;;;;4999213;28;20414;-79
2023/01/12 06:26:26;;;;;;;3.67;1.20;;;9.00;99.90;;;;;;5016628;28;20179;-79
2023/01/12 06:28:52;;;;;;;1.60;0.87;;;8.90;99.90;;;;;;4999139;28;20422;-79
2023/01/12 06:31:17;;;;;;;1.73;0.83;;;9.00;99.90;;;;;;4998989;28;20215;-79
2023/01/12 06:33:44;;;;;;;1.20;0.70;;;9.00;99.90;;;;;;5000164;28;20166;-79
2023/01/12 06:36:10;;;;;;;2.77;0.93;;;8.90;99.90;;;;;;4987675;28;20186;-79
2023/01/12 06:38:36;;;;;;;1.67;0.80;;;8.90;99.90;;;;;;4996242;28;20434;-79
2023/01/12 06:44:05;;;;;;;1.63;0.90;;;9.10;99.90;;;;;;4927143;28;20994;-80
2023/01/12 06:46:31;;;;;;;2.20;1.07;;;8.90;99.90;;;;;;4980021;28;20534;-79
2023/01/12 06:48:57;;;;;;;1.83;0.80;;;8.80;99.90;;;;;;4996972;28;20744;-79
2023/01/12 06:51:23;;;;;;;1.87;0.93;;;8.80;99.90;;;;;;4975312;28;20419;-79
2023/01/12 06:53:49;;;;;;;1.70;1.00;;;8.90;99.90;;;;;;5025745;28;20929;-79
2023/01/12 06:56:15;;;;;;;1.90;1.17;;;8.90;99.90;;;;;;5001437;28;20785;-78
2023/01/12 06:58:44;;;;;;;1.07;0.90;;;9.00;99.90;;;;;;5025076;28;20346;-79
2023/01/12 07:01:09;;;;;;;2.17;0.80;;;9.00;99.90;;;;;;5033715;28;20191;-79
2023/01/12 07:03:35;;;;;;;5.43;1.10;;;9.00;99.90;;;;;;5001599;28;20440;-79
2023/01/12 07:06:01;;;;;;;3.43;1.10;;;9.00;99.90;;;;;;5027169;28;20588;-79
2023/01/12 07:08:26;;;;;;;3.70;1.33;;;9.10;99.90;;;;;;5014674;28;20190;-79
2023/01/12 07:10:53;;;;;;;3.93;1.03;;;9.00;99.90;;;;;;4997621;28;20237;-79
2023/01/12 07:13:18;;;;;;;1.43;1.00;;;9.00;99.90;;;;;;5017756;28;21054;-79
2023/01/12 07:15:44;;;;;;;2.13;0.90;;;9.20;99.90;;;;;;5022459;28;20420;-78
2023/01/12 07:18:09;;;;;;;2.90;0.90;;;9.00;99.90;;;;;;5009714;28;20206;-79
2023/01/12 07:20:35;;;;;;;2.30;0.90;;;9.10;99.90;;;;;;5027128;28;20217;-79
2023/01/12 07:23:01;;;;;;;2.47;1.10;;;9.20;99.90;;;;;;5035328;28;20281;-79
2023/01/12 07:25:26;;;;;;;2.80;1.00;;;9.10;99.90;;;;;;5034448;28;20186;-79
2023/01/12 07:27:56;;;;;;;1.80;1.07;;;9.30;99.90;;;;;;5011729;28;20178;-79
2023/01/12 07:30:24;;;;;;;1.60;1.10;;;9.10;99.90;;;;;;4996913;28;20211;-79
2023/01/12 07:32:50;;;;;;;2.30;1.20;;;8.90;99.90;;;;;;4982441;28;20454;-79
2023/01/12 07:35:16;;;;;;;2.43;1.50;;;9.00;99.90;;;;;;4987025;28;20443;-77
2023/01/12 07:37:49;;;;;;;6.20;1.13;;;9.00;99.90;;;;;;5007539;28;20419;-79
2023/01/12 07:40:15;;;;;;;3.27;1.40;;;9.00;99.90;;;;;;4987064;28;20911;-79
2023/01/12 07:42:41;;;;;;;1.13;0.93;;;9.00;99.90;;;;;;4990032;28;20521;-79
2023/01/12 07:45:07;;;;;;;3.53;1.53;;;9.20;99.90;;;;;;4995442;28;20437;-78
2023/01/12 07:47:33;;;;;;;3.73;1.60;;;8.90;99.90;;;;;;4995222;28;20389;-79
2023/01/12 07:49:58;;;;;;;1.80;1.10;;;9.20;99.90;;;;;;5013349;28;20946;-79
2023/01/12 07:52:24;;;;;;;4.20;1.73;;;9.10;99.90;;;;;;4976010;28;20206;-77
2023/01/12 07:54:49;;;;;;;4.60;2.87;;;9.00;99.90;;;;;;4995691;28;20179;-79
2023/01/12 07:57:15;;;;;;;3.63;1.57;;;9.20;99.90;;;;;;5011494;28;20720;-79
2023/01/12 07:59:41;;;;;;;3.27;1.50;;;9.10;99.90;;;;;;4977017;28;20186;-79
2023/01/12 08:02:15;;;;;;;2.73;1.50;;;9.20;99.90;;;;;;4996187;28;20218;-79
2023/01/12 08:04:44;;;;;;;2.67;1.53;;;9.00;99.90;;;;;;5014121;28;20266;-79
2023/01/12 08:07:10;;;;;;;2.03;1.33;;;8.90;99.90;;;;;;4989558;28;20431;-79
2023/01/12 08:09:35;;;;;;;3.97;1.40;;;9.30;99.90;;;;;;4994330;28;20481;-77
2023/01/12 08:12:01;;;;;;;3.87;1.43;;;9.30;99.90;;;;;;4976990;28;20466;-79
2023/01/12 08:14:32;;;;;;;5.23;1.43;;;9.30;99.90;;;;;;4995644;28;20541;-79
2023/01/12 08:17:00;;;;;;;2.63;1.10;;;9.20;99.90;;;;;;4990456;28;20247;-79
2023/01/12 08:19:37;;;;;;;5.20;1.43;;;9.20;99.90;;;;;;4954352;28;20415;-79
2023/01/12 08:22:06;;;;;;;3.00;1.50;;;9.10;99.90;;;;;;4995332;28;20478;-77
2023/01/12 08:24:39;;;;;;;6.73;1.93;;;9.30;99.90;;;;;;4995429;28;20780;-79
2023/01/12 08:27:07;;;;;;;5.90;2.23;;;9.30;99.90;;;;;;4995035;28;20415;-79
2023/01/12 08:29:42;;;;;;;2.93;1.20;;;9.30;99.90;;;;;;4974624;28;20412;-79
2023/01/12 08:32:10;;;;;;;1.80;1.03;;;9.40;99.90;;;;;;4975577;28;21011;-77
2023/01/12 08:34:37;;;;;;;4.17;1.33;;;9.30;99.90;;;;;;4996149;28;20474;-79
2023/01/12 08:37:06;;;;;;;5.40;1.60;;;9.40;99.90;;;;;;4974346;28;20481;-79
2023/01/12 08:39:34;;;;;;;4.57;1.17;;;9.30;99.90;;;;;;4995662;28;20414;-79
2023/01/12 08:42:00;;;;;;;4.93;1.20;;;9.50;99.90;;;;;;4977165;28;20470;-79
2023/01/12 08:44:31;;;;;;;4.10;1.50;;;9.50;99.90;;;;;;4993277;28;20426;-78
2023/01/12 08:46:57;;;;;;;2.70;0.97;;;9.40;99.90;;;;;;4976739;28;20419;-77
2023/01/12 08:49:25;;;;;;;2.93;1.53;;;9.40;99.90;;;;;;4993173;28;20474;-77
2023/01/12 08:51:50;;;;;;;2.83;0.93;;;9.50;99.90;;;;;;4993928;28;20214;-79
2023/01/12 08:54:17;;;;;;;5.47;1.40;;;9.50;99.90;;;;;;4994572;28;20415;-77
2023/01/12 08:56:43;;;;;;;4.27;1.10;;;9.50;99.90;;;;;;4976188;28;20194;-78
2023/01/12 08:59:10;;;;;;;2.60;0.90;;;9.50;99.90;;;;;;4960657;28;20490;-79
2023/01/12 09:01:35;;;;;;;3.40;1.53;;;9.60;99.90;;;;;;4992613;28;20847;-78
2023/01/12 09:04:01;;;;;;;1.93;1.23;;;9.60;99.90;;;;;;4976702;28;20541;-79
2023/01/12 09:06:29;;;;;;;4.60;1.07;;;9.40;99.90;;;;;;4964509;28;20202;-77
2023/01/12 09:09:00;;;;;;;4.13;1.03;;;9.60;99.90;;;;;;4996453;28;20175;-79
2023/01/12 09:11:27;;;;;;;5.07;1.07;;;9.60;99.90;;;;;;5014791;28;20465;-79
2023/01/12 09:13:57;;;;;;;2.30;0.80;;;9.70;99.90;;;;;;5011138;28;20406;-78
2023/01/12 09:16:25;;;;;;;1.90;0.90;;;9.60;99.90;;;;;;5002997;28;20418;-78
2023/01/12 09:18:51;;;;;;;2.70;0.97;;;9.60;99.90;;;;;;5010734;28;20790;-79
2023/01/12 09:21:20;;;;;;;3.00;0.60;;;9.60;99.90;;;;;;5013795;28;20484;-79
2023/01/12 09:23:51;;;;;;;2.17;0.93;;;9.60;99.90;;;;;;4999132;28;20437;-77
2023/01/12 09:26:30;;;;;;;2.90;1.23;;;9.60;99.90;;;;;;4998874;28;20438;-79
2023/01/12 09:29:01;;;;;;;2.13;1.00;;;9.80;99.90;;;;;;4999277;28;20422;-77
2023/01/12 09:31:28;;;;;;;3.10;0.80;;;9.60;99.90;;;;;;5009426;28;20523;-79
2023/01/12 09:33:54;;;;;;;2.57;1.00;;;9.60;99.90;;;;;;4999486;28;20430;-78
2023/01/12 09:36:31;;;;;;;1.73;0.70;;;9.70;99.90;;;;;;4986454;28;20429;-79
2023/01/12 09:38:57;;;;;;;1.33;0.80;;;9.70;99.90;;;;;;4997623;28;20434;-79
2023/01/12 09:47:43;;;;;;;3.43;0.93;;;9.80;99.90;;;;;;4996949;28;20415;-79
2023/01/12 09:50:25;;;;;;;1.43;0.73;;;9.80;99.90;;;;;;4970919;28;20423;-79
2023/01/12 09:52:59;;;;;;;2.07;1.50;;;9.90;99.90;;;;;;4980380;28;20474;-78
2023/01/12 09:55:29;;;;;;;3.23;0.93;;;9.90;99.90;;;;;;4997076;28;20776;-79
2023/01/12 09:58:21;;;;;;;3.10;0.90;;;9.70;99.90;;;;;;4996715;28;20404;-78
2023/01/12 10:00:52;;;;;;;1.50;0.80;;;9.80;99.90;;;;;;4996225;28;20411;-79
2023/01/12 10:03:20;;;;;;;2.53;0.90;;;9.90;99.90;;;;;;4997224;28;20583;-79
2023/01/12 10:05:51;;;;;;;2.13;1.07;;;9.90;99.90;;;;;;4981217;28;20415;-78
2023/01/12 10:08:43;;;;;;;2.60;0.90;;;9.90;99.90;;;;;;5015992;28;21004;-77
2023/01/12 10:11:29;;;;;;;2.83;1.27;;;10.00;99.90;;;;;;5015876;28;20489;-77
2023/01/12 10:14:33;;;;;;;2.93;0.93;;;9.90;99.90;;;;;;5016071;28;20413;-80
2023/01/12 10:17:13;;;;;;;2.90;1.40;;;10.00;99.90;;;;;;4934799;29;20443;-80
2023/01/12 10:19:49;;;;;;;1.00;0.87;;;10.00;99.90;;;;;;5008965;28;20506;-76
2023/01/12 10:22:35;;;;;;;1.43;0.70;;;10.00;99.90;;;;;;4998095;28;20440;-79
2023/01/12 10:25:03;;;;;;;3.80;0.90;;;10.00;99.90;;;;;;4999413;28;20430;-80
2023/01/12 10:27:28;;;;;;;2.10;1.00;;;10.10;99.90;;;;;;5017013;28;20441;-79
2023/01/12 10:29:57;;;;;;;2.20;0.90;;;10.10;99.90;;;;;;5017002;28;20422;-79
2023/01/12 10:32:26;;;;;;;4.20;1.00;;;10.10;99.90;;;;;;5016049;28;20219;-80
2023/01/12 10:34:52;;;;;;;2.07;1.00;;;10.10;99.90;;;;;;4994662;28;20422;-78
2023/01/12 10:37:18;;;;;;;3.23;1.00;;;10.10;99.90;;;;;;4993298;28;20430;-78
2023/01/12 10:39:44;;;;;;;4.43;1.20;;;10.10;99.90;;;;;;4959699;28;20604;-78
2023/01/12 10:43:17;;;;;;;4.80;0.80;;;9.90;99.90;;;;;;4993210;28;20204;-80
2023/01/12 10:45:15;;;;;;;1.47;0.70;;;9.80;99.90;;;;;;4992890;28;20427;-76
2023/01/12 10:47:44;;;;;;;2.40;0.90;;;10.10;99.90;;;;;;4975317;28;20449;-78
2023/01/12 10:50:31;;;;;;;4.87;1.27;;;10.20;99.90;;;;;;4993444;28;20423;-78
2023/01/12 10:53:03;;;;;;;1.13;0.83;;;10.10;99.90;;;;;;4959825;28;20443;-79
2023/01/12 10:55:37;;;;;;;2.40;1.00;;;9.80;99.90;;;;;;4975300;28;20438;-77
2023/01/12 10:58:03;;;;;;;2.60;1.10;;;10.10;99.90;;;;;;4988997;28;20403;-79
2023/01/12 11:00:29;;;;;;;2.13;0.93;;;10.20;99.90;;;;;;4993091;28;20896;-78
2023/01/12 11:02:55;;;;;;;4.30;1.23;;;10.20;99.90;;;;;;4959382;28;20805;-80
2023/01/12 11:05:33;;;;;;;0.70;0.57;;;10.20;99.90;;;;;;4975447;28;20421;-78
2023/01/12 11:07:59;;;;;;;3.63;1.03;;;10.20;99.90;;;;;;4992994;28;20176;-78
2023/01/12 11:10:28;;;;;;;1.23;0.73;;;10.30;99.90;;;;;;4975119;28;20920;-78
2023/01/12 11:12:59;;;;;;;1.73;1.00;;;10.30;99.90;;;;;;4959269;28;20819;-77
2023/01/12 11:15:27;;;;;;;1.33;0.97;;;10.30;99.90;;;;;;4993128;28;20414;-77
2023/01/12 11:18:11;;;;;;;1.30;0.60;;;10.30;99.90;;;;;;4974456;28;20430;-78
2023/01/12 11:20:46;;;;;;;2.90;0.80;;;10.20;99.90;;;;;;4992417;28;20406;-78
2023/01/12 11:23:57;;;;;;;2.97;1.97;;;10.20;99.90;;;;;;4974266;28;20426;-76
2023/01/12 11:26:42;;;;;;;3.73;1.40;;;10.20;99.90;;;;;;4972796;28;20419;-78
2023/01/12 11:29:48;;;;;;;2.00;1.30;;;10.30;99.90;;;;;;4975241;28;20974;-79
2023/01/12 11:32:25;;;;;;;1.63;0.73;;;10.20;99.90;;;;;;4960776;28;20482;-80
2023/01/12 11:35:04;;;;;;;2.13;1.20;;;10.30;99.90;;;;;;4975814;28;20426;-80
2023/01/12 11:37:36;;;;;;;2.13;0.90;;;10.20;99.90;;;;;;4994433;28;20993;-79
2023/01/12 11:40:12;;;;;;;1.43;0.70;;;10.20;99.90;;;;;;4994118;28;20417;-80
2023/01/12 11:45:41;;;;;;;2.93;0.87;;;10.30;99.90;;;;;;4994483;28;20414;-78
2023/01/12 11:48:18;;;;;;;3.30;0.73;;;10.30;99.90;;;;;;5012230;28;20418;-78
2023/01/12 11:50:46;;;;;;;5.40;1.20;;;10.30;99.90;;;;;;4978206;28;20453;-78
2023/01/12 11:53:19;;;;;;;3.00;0.90;;;10.30;99.90;;;;;;5012124;28;20438;-78
2023/01/12 11:55:51;;;;;;;2.60;0.87;;;10.50;99.90;;;;;;4994324;28;20414;-78
2023/01/12 11:58:30;;;;;;;3.80;1.27;;;10.40;99.90;;;;;;4994562;28;20430;-78
2023/01/12 12:01:29;;;;;;;1.67;1.37;;;10.30;99.90;;;;;;4993759;28;20432;-77
2023/01/12 12:04:34;;;;;;;2.93;1.00;;;10.30;99.90;;;;;;4978511;28;20427;-78
2023/01/12 12:07:31;;;;;;;2.17;0.80;;;10.30;99.90;;;;;;4920082;29;20431;-78
2023/01/12 12:10:26;;;;;;;2.70;0.90;;;10.40;99.90;;;;;;4994079;28;20426;-78
2023/01/12 12:13:23;;;;;;;1.10;1.00;;;10.40;99.90;;;;;;4990028;28;20493;-77
2023/01/12 12:16:00;;;;;;;1.77;0.70;;;10.40;99.90;;;;;;4985882;28;20427;-79
2023/01/12 12:18:52;;;;;;;0.87;0.70;;;10.40;99.90;;;;;;4974651;28;20827;-79
2023/01/12 12:21:29;;;;;;;1.30;0.97;;;10.30;99.90;;;;;;4974303;28;20463;-77
2023/01/12 12:24:18;;;;;;;1.17;0.90;;;10.40;99.90;;;;;;4958059;28;20434;-79
2023/01/12 12:27:05;;;;;;;3.00;1.20;;;10.30;99.90;;;;;;4957466;28;20712;-79
2023/01/12 12:29:55;;;;;;;4.33;1.10;;;10.30;99.90;;;;;;4991082;28;20418;-79
2023/01/12 12:32:39;;;;;;;1.20;1.03;;;10.30;99.90;;;;;;4991090;28;20553;-79
2023/01/12 12:35:27;;;;;;;3.63;0.80;;;10.30;99.90;;;;;;4976296;28;20427;-79
2023/01/12 12:38:07;;;;;;;3.03;0.97;;;10.30;99.90;;;;;;4976960;28;20422;-79
2023/01/12 12:46:32;;;;;;;2.00;0.83;;;10.40;99.90;;;;;;5010310;28;20772;-78
2023/01/12 12:49:14;;;;;;;3.30;0.87;;;10.30;99.90;;;;;;5010730;28;20417;-78
2023/01/12 12:51:41;;;;;;;1.37;0.90;;;10.30;99.90;;;;;;5010751;28;20560;-78
2023/01/12 12:54:14;;;;;;;2.20;0.70;;;10.30;99.90;;;;;;5010860;28;20493;-77
2023/01/12 12:56:41;;;;;;;2.63;0.87;;;10.30;99.90;;;;;;4996009;28;20425;-78
2023/01/12 12:59:30;;;;;;;2.93;0.80;;;10.30;99.90;;;;;;4980777;28;20510;-78
2023/01/12 13:02:00;;;;;;;1.93;1.10;;;10.40;99.90;;;;;;5014929;28;20429;-78
2023/01/12 13:04:41;;;;;;;1.47;0.77;;;10.40;99.90;;;;;;4997765;28;20417;-78
2023/01/12 13:07:17;;;;;;;1.73;0.90;;;10.40;99.90;;;;;;5001165;28;20803;-77
2023/01/12 13:09:43;;;;;;;1.77;1.13;;;10.40;99.90;;;;;;4995957;28;20418;-78
2023/01/12 13:12:16;;;;;;;2.40;0.83;;;10.40;99.90;;;;;;4977959;28;20473;-78
2023/01/12 13:14:42;;;;;;;1.37;0.70;;;10.40;99.90;;;;;;4978363;28;20422;-77
2023/01/12 13:17:20;;;;;;;3.90;0.70;;;10.40;99.90;;;;;;4976526;28;20411;-78
2023/01/12 13:20:09;;;;;;;2.67;0.73;;;10.40;99.90;;;;;;4977669;28;20180;-77
2023/01/12 13:22:42;;;;;;;2.10;0.80;;;10.40;99.90;;;;;;4976414;28;20447;-78
2023/01/12 13:25:23;;;;;;;0.80;0.50;;;10.40;99.90;;;;;;4977864;28;20507;-76
2023/01/12 13:30:23;;;;;;;1.47;0.90;;;10.40;99.90;;;;;;4995226;28;20501;-77
2023/01/12 13:33:01;;;;;;;1.53;0.60;;;10.50;99.90;;;;;;4977619;28;20595;-78
2023/01/12 13:35:32;;;;;;;1.73;0.70;;;10.50;99.90;;;;;;5001262;28;20174;-78
2023/01/12 13:38:16;;;;;;;3.83;0.80;;;10.40;99.90;;;;;;4997114;28;20442;-76
2023/01/12 13:40:43;;;;;;;2.57;2.07;;;10.40;99.90;;;;;;5014272;28;20499;-77
2023/01/12 13:43:33;;;;;;;0.97;0.50;;;10.40;99.90;;;;;;5014942;28;20489;-77
2023/01/12 13:46:43;;;;;;;1.20;0.90;;;10.40;99.90;;;;;;5014725;28;20414;-78
2023/01/12 13:49:33;;;;;;;0.70;0.60;;;10.50;99.90;;;;;;4977321;28;20792;-78
2023/01/12 13:52:05;;;;;;;1.20;0.60;;;10.50;99.90;;;;;;5014956;28;20511;-77
2023/01/12 13:54:32;;;;;;;1.07;0.60;;;10.50;99.90;;;;;;4997448;28;20417;-78
2023/01/12 13:57:09;;;;;;;2.20;0.50;;;10.50;99.90;;;;;;4998480;28;20486;-78